createdAt,value
2018-06-20T00:00:29.104Z,24.33
2018-06-20T00:02:55.064Z,24.33
2018-06-20T00:05:21.053Z,24.31
2018-06-20T00:07:47.066Z,24.24
2018-06-20T00:10:13.027Z,24.25
2018-06-20T00:12:39.005Z,24.23
2018-06-20T00:15:04.978Z,24.26
2018-06-20T00:17:31.023Z,24.20
2018-06-20T00:19:56.976Z,24.26
2018-06-20T00:22:22.947Z,24.23
2018-06-20T00:24:48.923Z,24.21
2018-06-20T00:27:14.923Z,24.22
2018-06-20T00:29:40.893Z,24.24
2018-06-20T00:32:06.904Z,24.24
2018-06-20T00:34:32.931Z,24.22
2018-06-20T00:36:58.894Z,24.25
2018-06-20T00:39:24.864Z,24.23
2018-06-20T00:41:50.841Z,24.29
2018-06-20T00:44:16.819Z,24.21
2018-06-20T00:46:42.780Z,24.27
2018-06-20T00:49:08.753Z,24.31
2018-06-20T00:51:34.727Z,24.28
2018-06-20T00:54:00.707Z,24.23
2018-06-20T00:56:26.680Z,24.23
2018-06-20T00:58:52.648Z,24.26
2018-06-20T01:01:18.603Z,24.20
2018-06-20T01:03:44.604Z,24.27
2018-06-20T01:06:10.562Z,24.28
2018-06-20T01:08:36.547Z,24.22
2018-06-20T01:11:02.502Z,24.24
2018-06-20T01:13:28.462Z,24.21
2018-06-20T01:15:54.436Z,24.22
2018-06-20T01:18:20.395Z,24.27
2018-06-20T01:20:46.356Z,24.34
2018-06-20T01:23:12.330Z,24.26
2018-06-20T01:25:38.289Z,24.20
2018-06-20T01:28:04.284Z,24.25
2018-06-20T01:30:30.266Z,24.23
2018-06-20T01:32:56.256Z,24.25
2018-06-20T01:35:22.217Z,24.22
2018-06-20T01:37:48.201Z,24.24
2018-06-20T01:40:14.156Z,24.29
2018-06-20T01:42:40.129Z,24.23
2018-06-20T01:45:06.083Z,24.17
2018-06-20T01:47:32.094Z,24.20
2018-06-20T01:49:58.069Z,24.22
2018-06-20T01:52:24.037Z,24.24
2018-06-20T01:54:50.036Z,24.21
2018-06-20T01:57:16.038Z,24.25
2018-06-20T01:59:42.006Z,24.25
2018-06-20T02:02:07.984Z,24.32
2018-06-20T02:04:33.972Z,24.23
2018-06-20T02:06:59.932Z,24.26
2018-06-20T02:09:25.899Z,24.29
2018-06-20T02:11:51.844Z,24.24
2018-06-20T02:14:17.841Z,24.27
2018-06-20T02:16:43.889Z,24.37
2018-06-20T02:19:09.840Z,24.27
2018-06-20T02:21:35.816Z,24.24
2018-06-20T02:24:01.790Z,24.25
2018-06-20T02:26:27.760Z,24.26
2018-06-20T02:28:53.729Z,24.21
2018-06-20T02:31:19.752Z,24.24
2018-06-20T02:33:45.706Z,24.30
2018-06-20T02:36:11.692Z,24.20
2018-06-20T02:38:37.662Z,24.27
2018-06-20T02:41:03.643Z,24.23
2018-06-20T02:43:29.605Z,24.33
2018-06-20T02:45:55.577Z,24.27
2018-06-20T02:48:21.535Z,24.30
2018-06-20T02:50:47.589Z,24.29
2018-06-20T02:53:13.585Z,24.25
2018-06-20T02:55:39.553Z,24.26
2018-06-20T02:58:05.528Z,24.30
2018-06-20T03:00:31.482Z,24.28
2018-06-20T03:02:57.474Z,24.20
2018-06-20T03:05:23.442Z,24.22
2018-06-20T03:07:49.412Z,24.25
2018-06-20T03:10:15.404Z,24.24
2018-06-20T03:12:41.363Z,24.27
2018-06-20T03:15:07.340Z,24.21
2018-06-20T03:17:33.289Z,24.18
2018-06-20T03:19:59.262Z,24.20
2018-06-20T03:22:25.254Z,24.16
2018-06-20T03:24:51.242Z,24.28
2018-06-20T03:27:17.248Z,24.21
2018-06-20T03:29:43.215Z,24.21
2018-06-20T03:32:09.174Z,24.22
2018-06-20T03:34:35.142Z,24.22
2018-06-20T03:37:01.125Z,24.21
2018-06-20T03:39:27.097Z,24.23
2018-06-20T03:41:53.050Z,24.18
2018-06-20T03:44:19.072Z,24.15
2018-06-20T03:46:45.047Z,24.22
2018-06-20T03:49:11.012Z,24.25
2018-06-20T03:51:37.006Z,24.20
2018-06-20T03:54:02.980Z,24.21
2018-06-20T03:56:28.987Z,24.16
2018-06-20T03:58:55.099Z,24.17
2018-06-20T04:01:21.073Z,24.19
2018-06-20T04:03:47.024Z,24.17
2018-06-20T04:06:13.001Z,24.18
2018-06-20T04:08:38.953Z,24.20
2018-06-20T04:11:04.936Z,24.20
2018-06-20T04:13:30.938Z,24.23
2018-06-20T04:15:56.868Z,24.18
2018-06-20T04:18:22.935Z,24.16
2018-06-20T04:20:48.882Z,24.19
2018-06-20T04:23:14.869Z,24.21
2018-06-20T04:25:40.901Z,24.21
2018-06-20T04:28:06.939Z,24.23
2018-06-20T04:30:32.827Z,24.18
2018-06-20T04:32:58.811Z,24.20
2018-06-20T04:35:24.779Z,24.18
2018-06-20T04:37:50.741Z,24.17
2018-06-20T04:40:16.760Z,24.18
2018-06-20T04:42:42.744Z,24.17
2018-06-20T04:45:08.733Z,24.19
2018-06-20T04:47:34.723Z,24.19
2018-06-20T04:50:00.881Z,24.18
2018-06-20T04:52:26.843Z,24.14
2018-06-20T04:54:52.819Z,24.16
2018-06-20T04:57:18.793Z,24.21
2018-06-20T04:59:44.749Z,24.14
2018-06-20T05:02:11.843Z,24.18
2018-06-20T05:04:37.803Z,24.21
2018-06-20T05:07:03.772Z,24.18
2018-06-20T05:09:29.782Z,24.14
2018-06-20T05:11:55.764Z,24.17
2018-06-20T05:14:21.750Z,24.17
2018-06-20T05:16:47.713Z,24.17
2018-06-20T05:19:13.665Z,24.16
2018-06-20T05:21:39.640Z,24.21
2018-06-20T05:24:05.665Z,24.16
2018-06-20T05:26:31.645Z,24.20
2018-06-20T05:28:57.625Z,24.26
2018-06-20T05:31:23.587Z,24.19
2018-06-20T05:33:49.562Z,24.21
2018-06-20T05:36:15.570Z,24.19
2018-06-20T05:38:41.571Z,24.16
2018-06-20T05:41:07.589Z,24.15
2018-06-20T05:43:33.564Z,24.16
2018-06-20T05:45:59.516Z,24.21
2018-06-20T05:48:25.523Z,24.33
2018-06-20T05:50:51.497Z,24.20
2018-06-20T05:53:17.476Z,24.22
2018-06-20T05:55:43.435Z,24.16
2018-06-20T05:58:09.501Z,24.15
2018-06-20T06:00:35.513Z,24.57
2018-06-20T06:03:01.492Z,24.31
2018-06-20T06:05:27.484Z,24.44
2018-06-20T06:07:53.442Z,24.28
2018-06-20T06:10:19.455Z,24.33
2018-06-20T06:12:45.417Z,24.43
2018-06-20T06:15:11.379Z,24.41
2018-06-20T06:17:37.351Z,24.36
2018-06-20T06:20:03.343Z,24.53
2018-06-20T06:22:29.333Z,24.41
2018-06-20T06:24:55.413Z,24.36
2018-06-20T06:27:21.419Z,24.46
2018-06-20T06:29:47.391Z,24.35
2018-06-20T06:32:13.340Z,24.31
2018-06-20T06:34:39.309Z,24.30
2018-06-20T06:37:05.299Z,24.28
2018-06-20T06:39:31.391Z,24.29
2018-06-20T06:41:57.409Z,24.29
2018-06-20T06:44:23.436Z,24.30
2018-06-20T06:46:49.410Z,24.35
2018-06-20T06:49:15.355Z,24.32
2018-06-20T06:51:41.316Z,24.52
2018-06-20T06:54:07.327Z,24.50
2018-06-20T06:56:33.315Z,24.36
2018-06-20T06:58:59.293Z,24.38
2018-06-20T07:01:25.282Z,24.35
2018-06-20T07:03:51.254Z,24.46
2018-06-20T07:06:17.243Z,24.37
2018-06-20T07:08:43.202Z,24.30
2018-06-20T07:11:09.164Z,24.33
2018-06-20T07:13:35.164Z,24.33
2018-06-20T07:16:01.137Z,24.43
2018-06-20T07:18:27.737Z,24.38
2018-06-20T07:20:54.272Z,24.39
2018-06-20T07:23:20.711Z,24.33
2018-06-20T07:25:46.668Z,24.72
2018-06-20T07:28:12.645Z,24.49
2018-06-20T07:30:40.816Z,24.40
2018-06-20T07:33:06.745Z,24.44
2018-06-20T07:35:32.750Z,24.37
2018-06-20T07:37:58.740Z,24.47
2018-06-20T07:40:24.712Z,24.34
2018-06-20T07:42:50.696Z,24.39
2018-06-20T07:45:16.674Z,24.39
2018-06-20T07:47:42.637Z,24.39
2018-06-20T07:50:08.617Z,24.46
2018-06-20T07:52:34.582Z,24.48
2018-06-20T07:55:00.599Z,24.45
2018-06-20T07:57:26.569Z,24.43
2018-06-20T07:59:52.561Z,24.42
2018-06-20T08:02:18.622Z,24.43
2018-06-20T08:04:44.594Z,24.45
2018-06-20T08:07:10.610Z,24.49
2018-06-20T08:09:36.595Z,24.40
2018-06-20T08:12:02.599Z,24.50
2018-06-20T08:14:28.560Z,24.50
2018-06-20T08:16:54.572Z,24.53
2018-06-20T08:19:20.565Z,24.47
2018-06-20T08:21:46.532Z,24.51
2018-06-20T08:24:12.503Z,24.49
2018-06-20T08:26:38.487Z,24.48
2018-06-20T08:29:04.457Z,24.54
2018-06-20T08:31:30.435Z,24.53
2018-06-20T08:33:56.487Z,24.55
2018-06-20T08:36:22.475Z,24.59
2018-06-20T08:38:48.467Z,24.50
2018-06-20T08:41:14.587Z,24.51
2018-06-20T08:43:40.569Z,24.50
2018-06-20T08:46:06.527Z,24.60
2018-06-20T08:48:32.509Z,24.55
2018-06-20T08:50:58.484Z,24.54
2018-06-20T08:53:24.523Z,24.51
2018-06-20T08:55:50.508Z,24.57
2018-06-20T08:58:16.476Z,24.57
2018-06-20T09:00:43.093Z,24.54
2018-06-20T09:03:10.062Z,24.50
2018-06-20T09:05:36.043Z,24.52
2018-06-20T09:08:02.030Z,24.53
2018-06-20T09:10:28.024Z,24.51
2018-06-20T09:12:53.974Z,24.49
2018-06-20T09:15:19.966Z,24.56
2018-06-20T09:17:45.927Z,24.49
2018-06-20T09:20:11.876Z,24.50
2018-06-20T09:22:37.870Z,24.74
2018-06-20T09:25:03.833Z,24.60
2018-06-20T09:27:29.858Z,24.50
2018-06-20T09:29:55.877Z,24.46
2018-06-20T09:32:21.841Z,24.36
2018-06-20T09:34:47.840Z,24.37
2018-06-20T09:37:13.813Z,24.38
2018-06-20T09:39:39.905Z,24.42
2018-06-20T09:42:05.852Z,24.42
2018-06-20T09:44:31.847Z,24.42
2018-06-20T09:46:57.807Z,24.46
2018-06-20T09:49:23.868Z,24.44
2018-06-20T09:51:49.836Z,24.44
2018-06-20T09:54:15.902Z,24.44
2018-06-20T09:56:41.853Z,24.48
2018-06-20T09:59:07.837Z,24.50
2018-06-20T10:01:33.826Z,24.45
2018-06-20T10:03:59.754Z,24.80
2018-06-20T10:06:25.733Z,24.53
2018-06-20T10:08:51.720Z,24.49
2018-06-20T10:11:17.740Z,24.44
2018-06-20T10:13:43.680Z,24.44
2018-06-20T10:16:09.684Z,24.48
2018-06-20T10:18:35.681Z,24.49
2018-06-20T10:21:01.709Z,24.52
2018-06-20T10:23:27.668Z,24.53
2018-06-20T10:25:54.637Z,24.49
2018-06-20T10:28:20.630Z,24.49
2018-06-20T10:30:46.614Z,24.52
2018-06-20T10:33:12.615Z,24.49
2018-06-20T10:35:38.593Z,24.53
2018-06-20T10:38:04.597Z,24.53
2018-06-20T10:40:30.575Z,24.52
2018-06-20T10:42:56.569Z,24.51
2018-06-20T10:45:22.628Z,24.51
2018-06-20T10:47:48.598Z,24.47
2018-06-20T10:50:14.643Z,24.54
2018-06-20T10:52:40.640Z,24.49
2018-06-20T10:55:06.619Z,24.51
2018-06-20T10:57:32.600Z,24.48
2018-06-20T10:59:58.557Z,24.48
2018-06-20T11:02:24.546Z,24.50
2018-06-20T11:04:50.539Z,24.46
2018-06-20T11:07:16.554Z,24.53
2018-06-20T11:09:42.532Z,24.71
2018-06-20T11:12:08.488Z,24.60
2018-06-20T11:14:34.514Z,24.58
2018-06-20T11:17:00.543Z,24.56
2018-06-20T11:19:26.501Z,24.55
2018-06-20T11:21:52.568Z,24.56
2018-06-20T11:24:18.554Z,24.65
2018-06-20T11:26:44.540Z,24.74
2018-06-20T11:29:10.582Z,24.49
2018-06-20T11:31:36.500Z,24.44
2018-06-20T11:34:02.472Z,24.41
2018-06-20T11:36:28.458Z,24.38
2018-06-20T11:38:54.436Z,24.45
2018-06-20T11:41:20.382Z,24.38
2018-06-20T11:43:46.362Z,24.37
2018-06-20T11:46:12.359Z,24.44
2018-06-20T11:48:38.452Z,24.44
2018-06-20T11:51:04.431Z,24.49
2018-06-20T11:53:30.404Z,24.48
2018-06-20T11:55:56.359Z,24.44
2018-06-20T11:58:22.323Z,24.51
2018-06-20T12:00:48.320Z,24.49
2018-06-20T12:03:14.301Z,24.45
2018-06-20T12:05:40.294Z,24.45
2018-06-20T12:08:06.262Z,24.47
2018-06-20T12:10:32.249Z,24.44
2018-06-20T12:12:58.200Z,24.42
2018-06-20T12:15:24.156Z,24.43
2018-06-20T12:17:50.124Z,24.46
2018-06-20T12:20:16.086Z,24.50
2018-06-20T12:22:42.011Z,24.48
2018-06-20T12:25:07.981Z,24.47
2018-06-20T12:27:33.937Z,24.41
2018-06-20T12:29:59.936Z,24.44
2018-06-20T12:32:25.929Z,24.48
2018-06-20T12:34:51.894Z,24.50
2018-06-20T12:37:17.848Z,24.48
2018-06-20T12:39:43.803Z,24.48
2018-06-20T12:42:09.777Z,24.47
2018-06-20T12:44:35.759Z,24.43
2018-06-20T12:47:01.784Z,24.46
2018-06-20T12:49:27.748Z,24.46
2018-06-20T12:51:53.742Z,24.44
2018-06-20T12:54:19.708Z,24.45
2018-06-20T12:56:45.692Z,24.43
2018-06-20T12:59:11.656Z,24.44
2018-06-20T13:01:37.659Z,24.49
2018-06-20T13:04:03.695Z,24.50
2018-06-20T13:06:29.600Z,24.42
2018-06-20T13:08:55.565Z,24.45
2018-06-20T13:11:21.551Z,24.45
2018-06-20T13:13:47.530Z,24.49
2018-06-20T13:16:13.529Z,24.50
2018-06-20T13:18:39.521Z,24.49
2018-06-20T13:21:05.536Z,24.48
2018-06-20T13:23:31.514Z,24.46
2018-06-20T13:25:57.492Z,24.46
2018-06-20T13:28:23.489Z,24.46
2018-06-20T13:30:49.456Z,24.45
2018-06-20T13:33:15.421Z,24.48
2018-06-20T13:35:41.381Z,24.49
2018-06-20T13:38:07.391Z,24.60
2018-06-20T13:40:33.396Z,24.90
2018-06-20T13:42:59.390Z,24.60
2018-06-20T13:45:25.476Z,24.52
2018-06-20T13:47:51.478Z,24.47
2018-06-20T13:50:18.542Z,24.48
2018-06-20T13:52:45.580Z,24.49
2018-06-20T13:55:11.617Z,24.51
2018-06-20T13:57:37.674Z,24.57
2018-06-20T14:00:03.662Z,24.58
2018-06-20T14:02:29.746Z,24.51
2018-06-20T14:04:55.752Z,24.49
2018-06-20T14:07:21.755Z,24.48
2018-06-20T14:09:47.737Z,24.51
2018-06-20T14:12:13.724Z,24.48
2018-06-20T14:14:39.692Z,25.01
2018-06-20T14:17:05.649Z,24.58
2018-06-20T14:19:31.719Z,24.69
2018-06-20T14:21:58.866Z,24.62
2018-06-20T14:24:24.836Z,24.49
2018-06-20T14:26:50.806Z,24.49
2018-06-20T14:29:16.782Z,24.51
2018-06-20T14:31:42.788Z,24.49
2018-06-20T14:34:08.744Z,24.49
2018-06-20T14:36:34.735Z,24.52
2018-06-20T14:39:00.699Z,24.53
2018-06-20T14:41:26.657Z,24.54
2018-06-20T14:43:52.653Z,24.54
2018-06-20T14:46:18.646Z,24.57
2018-06-20T14:48:44.681Z,24.50
2018-06-20T14:51:10.653Z,24.55
2018-06-20T14:53:36.616Z,24.54
2018-06-20T14:56:02.575Z,24.47
2018-06-20T14:58:28.535Z,24.50
2018-06-20T15:00:54.571Z,24.48
2018-06-20T15:03:20.568Z,24.52
2018-06-20T15:05:46.528Z,24.52
2018-06-20T15:08:12.496Z,24.50
2018-06-20T15:10:38.469Z,24.49
2018-06-20T15:13:04.461Z,24.50
2018-06-20T15:15:30.491Z,24.53
2018-06-20T15:17:56.461Z,24.52
2018-06-20T15:20:22.448Z,24.53
2018-06-20T15:22:48.419Z,24.57
2018-06-20T15:25:14.367Z,24.52
2018-06-20T15:27:40.349Z,24.58
2018-06-20T15:30:06.325Z,24.57
2018-06-20T15:32:32.291Z,24.54
2018-06-20T15:34:58.303Z,24.55
2018-06-20T15:37:24.260Z,24.54
2018-06-20T15:39:50.228Z,24.53
2018-06-20T15:42:16.206Z,24.51
2018-06-20T15:44:42.216Z,24.57
2018-06-20T15:47:08.179Z,24.53
2018-06-20T15:49:34.151Z,24.53
2018-06-20T15:52:00.116Z,24.53
2018-06-20T15:54:26.124Z,24.53
2018-06-20T15:56:52.104Z,24.55
2018-06-20T15:59:18.058Z,24.52
2018-06-20T16:01:44.021Z,24.54
2018-06-20T16:04:10.001Z,24.56
2018-06-20T16:06:35.979Z,24.57
2018-06-20T16:09:01.985Z,24.58
2018-06-20T16:11:27.988Z,24.56
2018-06-20T16:13:53.958Z,24.52
2018-06-20T16:16:19.995Z,24.55
2018-06-20T16:18:45.974Z,24.53
2018-06-20T16:21:12.040Z,24.57
2018-06-20T16:23:37.991Z,24.51
2018-06-20T16:26:03.977Z,24.54
2018-06-20T16:28:29.951Z,24.52
2018-06-20T16:30:56.005Z,24.55
2018-06-20T16:33:22.081Z,24.51
2018-06-20T16:35:48.056Z,24.50
2018-06-20T16:38:14.013Z,24.53
2018-06-20T16:40:40.150Z,24.54
2018-06-20T16:43:06.132Z,24.52
2018-06-20T16:45:32.102Z,24.52
2018-06-20T16:47:58.068Z,24.49
2018-06-20T16:50:24.025Z,24.73
2018-06-20T16:52:50.016Z,24.69
2018-06-20T16:55:15.994Z,24.62
2018-06-20T16:57:41.957Z,24.70
2018-06-20T17:00:07.963Z,24.58
2018-06-20T17:02:33.990Z,24.62
2018-06-20T17:04:59.970Z,24.59
2018-06-20T17:07:25.983Z,24.62
2018-06-20T17:09:51.965Z,24.61
2018-06-20T17:12:17.998Z,24.64
2018-06-20T17:14:43.976Z,24.64
2018-06-20T17:17:09.980Z,24.68
2018-06-20T17:19:35.988Z,24.66
2018-06-20T17:22:02.010Z,24.60
2018-06-20T17:24:27.990Z,24.59
2018-06-20T17:26:53.982Z,24.58
2018-06-20T17:29:19.921Z,24.58
2018-06-20T17:31:45.919Z,24.56
2018-06-20T17:34:11.903Z,24.54
2018-06-20T17:36:37.893Z,24.55
2018-06-20T17:39:03.903Z,24.62
2018-06-20T17:41:29.906Z,24.58
2018-06-20T17:43:56.001Z,24.57
2018-06-20T17:46:22.047Z,24.59
2018-06-20T17:48:47.968Z,24.60
2018-06-20T17:51:13.971Z,24.61
2018-06-20T17:53:39.940Z,24.60
2018-06-20T17:56:05.911Z,24.62
2018-06-20T17:58:31.903Z,24.59
2018-06-20T18:00:57.895Z,24.63
2018-06-20T18:03:23.867Z,24.68
2018-06-20T18:05:49.844Z,24.71
2018-06-20T18:08:15.830Z,24.69
2018-06-20T18:10:41.800Z,24.71
2018-06-20T18:13:07.834Z,24.59
2018-06-20T18:15:33.844Z,24.59
2018-06-20T18:17:59.840Z,24.60
2018-06-20T18:20:25.824Z,24.62
2018-06-20T18:22:51.828Z,24.59
2018-06-20T18:25:17.798Z,24.69
2018-06-20T18:27:43.793Z,24.65
2018-06-20T18:30:09.806Z,24.63
2018-06-20T18:32:35.791Z,24.65
2018-06-20T18:35:01.794Z,24.70
2018-06-20T18:37:27.808Z,24.60
2018-06-20T18:39:53.786Z,24.64
2018-06-20T18:42:19.749Z,24.69
2018-06-20T18:44:45.734Z,24.68
2018-06-20T18:47:11.723Z,24.66
2018-06-20T18:49:37.713Z,24.66
2018-06-20T18:52:03.668Z,24.65
2018-06-20T18:54:29.667Z,24.64
2018-06-20T18:56:55.685Z,24.59
2018-06-20T18:59:21.664Z,24.55
2018-06-20T19:01:47.646Z,24.54
2018-06-20T19:04:13.621Z,24.57
2018-06-20T19:06:39.607Z,24.63
2018-06-20T19:09:05.733Z,24.63
2018-06-20T19:11:31.597Z,24.64
2018-06-20T19:13:57.558Z,24.65
2018-06-20T19:16:23.513Z,24.64
2018-06-20T19:18:49.475Z,24.66
2018-06-20T19:21:15.456Z,24.66
2018-06-20T19:23:41.442Z,24.71
2018-06-20T19:26:07.421Z,24.76
2018-06-20T19:28:33.393Z,24.74
2018-06-20T19:30:59.457Z,24.73
2018-06-20T19:33:25.446Z,24.69
2018-06-20T19:35:51.465Z,24.70
2018-06-20T19:38:17.469Z,24.66
2018-06-20T19:40:44.985Z,24.57
2018-06-20T19:43:10.990Z,24.56
2018-06-20T19:45:36.996Z,24.55
2018-06-20T19:48:02.959Z,24.59
2018-06-20T19:50:28.936Z,24.57
2018-06-20T19:52:54.944Z,24.57
2018-06-20T19:55:20.952Z,24.60
2018-06-20T19:57:47.018Z,24.56
2018-06-20T20:00:13.004Z,24.58
2018-06-20T20:02:39.145Z,24.58
2018-06-20T20:05:05.264Z,24.54
2018-06-20T20:07:31.338Z,24.59
2018-06-20T20:09:57.324Z,24.56
2018-06-20T20:12:23.394Z,24.57
2018-06-20T20:14:49.489Z,24.56
2018-06-20T20:17:15.427Z,24.59
2018-06-20T20:19:41.433Z,24.57
2018-06-20T20:22:07.424Z,24.54
2018-06-20T20:24:33.380Z,24.53
2018-06-20T20:26:59.488Z,24.52
2018-06-20T20:29:25.503Z,24.54
2018-06-20T20:31:51.478Z,24.54
2018-06-20T20:34:17.473Z,24.57
2018-06-20T20:36:43.448Z,24.61
2018-06-20T20:39:09.448Z,24.53
2018-06-20T20:41:35.404Z,24.56
2018-06-20T20:44:01.360Z,24.52
2018-06-20T20:46:27.364Z,24.51
2018-06-20T20:48:53.327Z,24.59
2018-06-20T20:51:19.288Z,24.55
2018-06-20T20:53:45.260Z,24.58
2018-06-20T20:56:11.257Z,24.58
2018-06-20T20:58:37.376Z,24.57
2018-06-20T21:01:03.337Z,24.57
2018-06-20T21:03:29.299Z,24.59
2018-06-20T21:05:55.332Z,24.58
2018-06-20T21:08:21.301Z,24.60
2018-06-20T21:10:47.273Z,24.60
2018-06-20T21:13:13.272Z,24.58
2018-06-20T21:15:39.340Z,24.60
2018-06-20T21:18:05.307Z,24.57
2018-06-20T21:20:31.266Z,24.59
2018-06-20T21:22:57.267Z,24.56
2018-06-20T21:25:23.236Z,24.53
2018-06-20T21:27:49.274Z,24.51
2018-06-20T21:30:15.254Z,24.50
2018-06-20T21:32:41.216Z,24.54
2018-06-20T21:35:07.206Z,24.58
2018-06-20T21:37:33.245Z,24.53
2018-06-20T21:39:59.238Z,24.52
2018-06-20T21:42:25.222Z,24.52
2018-06-20T21:44:51.191Z,24.51
2018-06-20T21:47:17.152Z,24.52
2018-06-20T21:49:43.150Z,24.53
2018-06-20T21:52:09.120Z,24.48
2018-06-20T21:54:35.078Z,24.49
2018-06-20T21:57:01.061Z,24.49
2018-06-20T21:59:27.029Z,24.52
2018-06-20T22:01:53.091Z,24.54
2018-06-20T22:04:19.052Z,24.52
2018-06-20T22:06:45.023Z,24.51
2018-06-20T22:09:11.021Z,24.51
2018-06-20T22:11:36.982Z,24.50
2018-06-20T22:14:02.955Z,24.73
2018-06-20T22:16:28.938Z,24.55
2018-06-20T22:18:54.912Z,24.53
2018-06-20T22:21:21.103Z,24.52
2018-06-20T22:23:47.076Z,24.53
2018-06-20T22:26:13.053Z,24.51
2018-06-20T22:28:39.004Z,24.50
2018-06-20T22:31:04.976Z,24.58
2018-06-20T22:33:30.953Z,24.54
2018-06-20T22:35:56.934Z,24.61
2018-06-20T22:38:22.887Z,24.83
2018-06-20T22:40:50.435Z,24.70
2018-06-20T22:43:16.424Z,24.63
2018-06-20T22:45:42.419Z,24.62
2018-06-20T22:48:08.382Z,24.63
2018-06-20T22:50:34.347Z,24.60
2018-06-20T22:53:00.313Z,24.64
2018-06-20T22:55:26.316Z,24.64
2018-06-20T22:57:52.278Z,24.63
2018-06-20T23:00:18.254Z,24.61
2018-06-20T23:02:44.205Z,24.61
2018-06-20T23:05:10.189Z,24.60
2018-06-20T23:07:36.153Z,24.60
2018-06-20T23:10:02.110Z,24.63
2018-06-20T23:12:28.076Z,24.62
2018-06-20T23:14:54.592Z,24.72
2018-06-20T23:17:20.824Z,24.62
2018-06-20T23:19:46.797Z,24.63
2018-06-20T23:22:12.777Z,24.62
2018-06-20T23:24:38.732Z,24.64
2018-06-20T23:27:04.702Z,24.79
2018-06-20T23:29:30.672Z,24.62
2018-06-20T23:31:56.638Z,24.55
2018-06-20T23:34:22.617Z,24.62
2018-06-20T23:36:48.577Z,24.58
2018-06-20T23:39:14.525Z,24.60
2018-06-20T23:41:40.530Z,24.55
2018-06-20T23:44:06.476Z,24.62
2018-06-20T23:46:32.436Z,24.57
2018-06-20T23:48:58.406Z,24.58
2018-06-20T23:51:24.372Z,24.57
2018-06-20T23:53:50.359Z,24.60
2018-06-20T23:56:16.426Z,24.59
2018-06-20T23:58:42.392Z,24.57
